地図

経路データ

SID SEASON NUMBER BASIN SUBBASIN NAME ISO_TIME NATURE LAT LON WMO_WIND WMO_PRES WMO_AGENCY TRACK_TYPE DIST2LAND LANDFALL IFLAG USA_AGENCY USA_ATCF_ID USA_LAT USA_LON USA_RECORD USA_STATUS USA_WIND USA_PRES USA_SSHS USA_R34_NE USA_R34_SE USA_R34_SW USA_R34_NW USA_R50_NE USA_R50_SE USA_R50_SW USA_R50_NW USA_R64_NE USA_R64_SE USA_R64_SW USA_R64_NW USA_POCI USA_ROCI USA_RMW USA_EYE TOKYO_LAT TOKYO_LON TOKYO_GRADE TOKYO_WIND TOKYO_PRES TOKYO_R50_DIR TOKYO_R50_LONG TOKYO_R50_SHORT TOKYO_R30_DIR TOKYO_R30_LONG TOKYO_R30_SHORT TOKYO_LAND CMA_LAT CMA_LON CMA_CAT CMA_WIND CMA_PRES HKO_LAT HKO_LON HKO_CAT HKO_WIND HKO_PRES NEWDELHI_LAT NEWDELHI_LON NEWDELHI_GRADE NEWDELHI_WIND NEWDELHI_PRES NEWDELHI_CI NEWDELHI_DP NEWDELHI_POCI REUNION_LAT REUNION_LON REUNION_TYPE REUNION_WIND REUNION_PRES REUNION_TNUM REUNION_CI REUNION_RMW REUNION_R34_NE REUNION_R34_SE REUNION_R34_SW REUNION_R34_NW REUNION_R50_NE REUNION_R50_SE REUNION_R50_SW REUNION_R50_NW REUNION_R64_NE REUNION_R64_SE REUNION_R64_SW REUNION_R64_NW BOM_LAT BOM_LON BOM_TYPE BOM_WIND BOM_PRES BOM_TNUM BOM_CI BOM_RMW BOM_R34_NE BOM_R34_SE BOM_R34_SW BOM_R34_NW BOM_R50_NE BOM_R50_SE BOM_R50_SW BOM_R50_NW BOM_R64_NE BOM_R64_SE BOM_R64_SW BOM_R64_NW BOM_ROCI BOM_POCI BOM_EYE BOM_POS_METHOD BOM_PRES_METHOD NADI_LAT NADI_LON NADI_CAT NADI_WIND NADI_PRES WELLINGTON_LAT WELLINGTON_LON WELLINGTON_WIND WELLINGTON_PRES DS824_LAT DS824_LON DS824_STAGE DS824_WIND DS824_PRES TD9636_LAT TD9636_LON TD9636_STAGE TD9636_WIND TD9636_PRES TD9635_LAT TD9635_LON TD9635_WIND TD9635_PRES TD9635_ROCI NEUMANN_LAT NEUMANN_LON NEUMANN_CLASS NEUMANN_WIND NEUMANN_PRES MLC_LAT MLC_LON MLC_CLASS MLC_WIND MLC_PRES USA_GUST BOM_GUST BOM_GUST_PER REUNION_GUST REUNION_GUST_PER USA_SEAHGT USA_SEARAD_NE USA_SEARAD_SE USA_SEARAD_SW USA_SEARAD_NW STORM_SPEED STORM_DIR
2020260N13118 2020 30 WP MM NOUL 2020-09-15 18:00:00 NR 12.8000 118.400 PROVISIONAL 206 206 O_____________ tcvitals WP132020 12.8000 118.400 35 1000 0 40 85 50 80 1006 150 80 8 293
2020260N13118 2020 30 WP MM NOUL 2020-09-15 21:00:00 NR 12.9523 118.027 PROVISIONAL 250 250 P_____________ WP132020 12.9501 118.005 37 999 0 42 92 52 80 1005 165 80 8 292
2020260N13118 2020 30 WP MM NOUL 2020-09-16 00:00:00 NR 13.1031 117.630 PROVISIONAL 288 288 O_____________ tcvitals WP132020 13.1000 117.600 39 998 0 45 100 55 80 1005 180 80 9 290
2020260N13118 2020 30 WP MM NOUL 2020-09-16 03:00:00 NR 13.2517 117.190 PROVISIONAL 335 335 P_____________ WP132020 13.2499 117.172 42 996 0 60 70 52 65 1004 190 47 10 288
2020260N13118 2020 30 WP MM NOUL 2020-09-16 06:00:00 NR 13.4000 116.700 PROVISIONAL 383 383 O_____________ tcvitals WP132020 13.4000 116.700 45 995 0 75 40 50 50 1004 200 14 11 285
2020260N13118 2020 30 WP MM NOUL 2020-09-16 09:00:00 NR 13.5425 116.110 PROVISIONAL 441 441 P_____________ WP132020 13.5427 116.113 45 994 0 70 105 95 72 1004 225 14 11 286
2020260N13118 2020 30 WP MM NOUL 2020-09-16 12:00:00 NR 13.7000 115.600 PROVISIONAL 498 498 O_____________ tcvitals WP132020 13.7000 115.600 45 993 0 65 170 140 95 1004 250 14 8 296
2020260N13118 2020 30 WP MM NOUL 2020-09-16 15:00:00 NR 13.8847 115.377 PROVISIONAL 512 512 P_____________ WP132020 13.8847 115.377 45 993 0 62 115 120 110 1003 230 17 6 316
2020260N13118 2020 30 WP MM NOUL 2020-09-16 18:00:00 NR 14.1000 115.200 PROVISIONAL 526 526 O_____________ tcvitals WP132020 14.1000 115.200 45 993 0 60 60 100 126 1003 210 20 6 311
2020260N13118 2020 30 WP MM NOUL 2020-09-16 21:00:00 NR 14.3048 114.875 PROVISIONAL 549 549 P_____________ WP132020 14.3048 114.875 45 992 0 87 82 97 123 1003 210 22 9 303
2020260N13118 2020 30 WP MM NOUL 2020-09-17 00:00:00 NR 14.6000 114.400 PROVISIONAL 555 502 O_____________ tcvitals WP132020 14.6000 114.400 45 992 0 115 105 95 120 1003 210 25 14 307
2020260N13118 2020 30 WP MM NOUL 2020-09-17 03:00:00 NR 15.1226 113.746 PROVISIONAL 492 430 P_____________ WP132020 15.1226 113.746 45 993 0 105 72 100 107 1003 210 25 17 306
2020260N13118 2020 30 WP MM NOUL 2020-09-17 06:00:00 NR 15.6000 113.000 PROVISIONAL 430 361 O_____________ tcvitals WP132020 15.6000 113.000 45 994 0 95 40 105 95 1003 210 25 15 294
2020260N13118 2020 30 WP MM NOUL 2020-09-17 09:00:00 NR 15.7372 112.307 PROVISIONAL 361 295 P_____________ WP132020 15.7372 112.307 45 993 0 105 65 102 100 1002 207 25 14 278
2020260N13118 2020 30 WP MM NOUL 2020-09-17 12:00:00 NR 15.8000 111.600 PROVISIONAL 295 232 O_____________ tcvitals WP132020 15.8000 111.600 45 992 0 115 90 100 105 1002 205 25 15 282
2020260N13118 2020 30 WP MM NOUL 2020-09-17 15:00:00 NR 16.0501 110.828 PROVISIONAL 227 177 P_____________ WP132020 16.0501 110.828 45 992 0 125 87 102 102 1002 205 25 15 289
2020260N13118 2020 30 WP MM NOUL 2020-09-17 18:00:00 NR 16.3000 110.100 PROVISIONAL 177 154 O_____________ tcvitals WP132020 16.3000 110.100 45 993 0 135 85 105 100 1002 205 25 11 290
2020260N13118 2020 30 WP MM NOUL 2020-09-17 21:00:00 NR 16.4493 109.715 PROVISIONAL 154 102 P_____________ WP132020 16.4493 109.715 48 991 0 130 95 90 125 1002 200 25 11 281
2020260N13118 2020 30 WP MM NOUL 2020-09-18 00:00:00 NR 16.5000 109.000 PROVISIONAL 93 0 O_____________ tcvitals WP132020 16.5000 109.000 51 990 0 126 105 75 150 1002 195 25 23 270
2020260N13118 2020 30 WP MM NOUL 2020-09-18 03:00:00 NR 16.4413 107.299 PROVISIONAL 0 0 P_____________ WP132020 16.4422 107.239 43 993 0 110 92 57 155 1001 200 25 36 267
2020260N13118 2020 30 WP MM NOUL 2020-09-18 06:00:00 NR 16.3000 105.300 PROVISIONAL 0 0 O_____________ tcvitals WP132020 16.3000 105.300 35 997 0 95 80 40 160 1001 205 25 32 265
2020260N13118 2020 30 WP MM NOUL 2020-09-18 09:00:00 NR 16.1472 103.946 PROVISIONAL 0 0 P_____________ WP132020 16.1472 103.946 35 995 0 137 95 160 1000 177 32 22 262
2020260N13118 2020 30 WP MM NOUL 2020-09-18 12:00:00 NR 16.0000 103.000 PROVISIONAL 0 O_____________ tcvitals WP132020 16.0000 103.000 35 994 0 180 110 160 1000 150 40 18 261

デジタル台風データ・検索

IBTrACS Databaseについて

本データベースは、米国NOAAが公開する1842年以降の世界の熱帯低気圧のベストトラックデータアーカイブInternational Best Track Archive for Climate Stewardship (IBTrACS)を、ウェブで閲覧しやすい形式に変換したものです。

最終更新日:2021-10-21